Current Weather

Cambridge-Dorchester Rgnl

Cambridge, Maryland (KCGE)

Report from: Monday, March 4, 2024 7:25 PM EST
Current time: Monday, March 4, 2024 7:50 PM EST

Nearby weather – Weather history – Daily summaries
Weather forecast

Temperature12.0°C (53.6°F)
Dew point9.0°C (48.2°F)
Winds 5 kts (2.6 m/s, 5.8 mph) East (80°)
Wind gusts 10 kts (5.1 m/s, 11.5 mph)
Visibility10 mi. (16.1 km)
Clouds Ceiling: Overcast 2,200 ft. (671 m)
Altimeter30.24 in.Hg (1024 mB)
Relative humidity82 %
Density altitude-558 ft. (-170 m)
Remarks Fully automated report
Flight conditions Marginal Visual Meteorological Conditions
Raw dataKCGE 050025Z AUTO 08005G10KT 10SM OVC022 12/09 A3024 RMK A01
An error has occurred. This application may no longer respond until reloaded. Reload 🗙